Portada
METAR-TAF:

METAR-TAF

Aeroports :

Tarapoto, Perú

latitud: 06-27S, longitud: 076-23W, altitud: 281 m

Observació

L'informe es va fer fa 30 minuts, a les 22:00 UTC
Vent 8 kt del Nord/Nord-Est
Temperatura 33°C
Humitat 49%
Pressió 1004 hPa
Visibilitat 10 km o més
Escasses núvols a una alçada de 2500 ft

METAR: SPST 262200Z 02008KT 9999 FEW025 33/21 Q1004 RMK TX35.2 PP000

Hora: 17:30 (22:30 UTC)

Pronòstic

L'informe es va fer fa 5 hores i 20 minuts, a les 17:10 UTC
Pronòstic vàlid del 26 a les 18 UTC al 27 a les 18 UTC
Vent 3 kt amb direcció variable
Visibilitat 10 km o més
Núvols disperses a una alçada de 2000 ft
Núvols disperses a una alçada de 8000 ft
Temporalment
l' 26 a les 18 UTC al 26 a les 21 UTC
Vent 10 kt del Nord/Nord-Est
Evolucionant progressivament
l' 27 a les 16 UTC al 27 a les 18 UTC
Vent 12 kt del Nord/Nord-Est

TAF: SPST 261710Z 2618/2718 VRB03KT 9999 SCT020 SCT080 TX33/2620Z TN19/2711Z TEMPO 2618/2621 02010KT BECMG 2716/2718 02012KT

Observacions i pronòstics meteorològics de més de 4000 aeroports (METAR i TAF).

Les estacions disponibles són els punts grocs i vermells al mapa.

Posi el ratolí al punt desitjat per veure el nom de l'estació.

Feu clic per veure les observacions i els pronòstics meteorològics.

Per canviar el mapa: feu clic els botons verds amb una creu de color negre per apropar; al botó verd amb un guió per allunyar la imatge; o en les fletxes verdes per a mapes adjacents.


METAR-TAF: